Time;durP1;ratioP1;P1;durP2;ratioP2;P2;SDS_P1;SDS_P2;PMS_P1;PMS_P2;Temp;Humidity;BMP_temperature;BMP_pressure;BME280_temperature;BME280_humidity;BME280_pressure;Samples;Min_cycle;Max_cycle;Signal;HPM_P1;HPM_P2
2023/06/02 00:00:07;;;;;;;3.22;1.88;;;19.90;71.30;;;;;;5012193;28;20167;-31
2023/06/02 00:02:34;;;;;;;5.07;2.03;;;;;;;;;;5011668;28;20443;-31
2023/06/02 00:05:05;;;;;;;4.85;2.08;;;19.60;71.70;;;;;;5011995;28;20053;-31
2023/06/02 00:07:32;;;;;;;6.47;2.30;;;;;;;;;;5012168;28;20046;-32
2023/06/02 00:09:59;;;;;;;4.57;2.30;;;19.20;70.60;;;;;;5011859;28;20100;-30
2023/06/02 00:12:26;;;;;;;4.00;2.05;;;;;;;;;;5011780;28;20089;-32
2023/06/02 00:14:53;;;;;;;7.07;2.42;;;20.40;71.10;;;;;;5015471;28;20054;-31
2023/06/02 00:17:19;;;;;;;3.53;1.98;;;19.20;71.00;;;;;;5015600;28;20125;-31
2023/06/02 00:19:47;;;;;;;4.38;2.15;;;19.40;60.60;;;;;;5015987;28;20058;-31
2023/06/02 00:22:15;;;;;;;4.43;2.05;;;19.80;71.80;;;;;;5015524;28;20125;-31
2023/06/02 00:24:42;;;;;;;4.95;1.80;;;19.70;71.00;;;;;;5016034;28;20053;-31
2023/06/02 00:27:09;;;;;;;3.50;1.80;;;20.40;65.20;;;;;;5015642;28;20056;-31
2023/06/02 00:29:36;;;;;;;3.00;1.77;;;20.70;71.60;;;;;;5015526;28;20048;-30
2023/06/02 00:32:03;;;;;;;3.45;1.90;;;;;;;;;;5015430;28;20100;-31
2023/06/02 00:34:29;;;;;;;3.25;1.85;;;20.20;71.30;;;;;;5015265;28;20566;-30
2023/06/02 00:36:56;;;;;;;4.38;1.92;;;19.30;71.50;;;;;;5015067;28;20594;-31
2023/06/02 00:39:25;;;;;;;3.58;2.30;;;20.20;71.20;;;;;;5015572;28;20050;-31
2023/06/02 00:41:52;;;;;;;4.07;2.13;;;19.10;71.50;;;;;;5015097;28;20052;-30
2023/06/02 00:44:18;;;;;;;4.32;2.15;;;19.70;71.90;;;;;;5015023;28;20128;-31
2023/06/02 00:46:45;;;;;;;3.92;2.15;;;20.00;61.60;;;;;;5015227;28;20050;-31
2023/06/02 00:49:12;;;;;;;5.07;1.92;;;20.20;71.30;;;;;;5015444;28;20149;-31
2023/06/02 00:51:38;;;;;;;3.85;2.03;;;20.70;72.10;;;;;;5015320;28;20053;-30
2023/06/02 00:54:06;;;;;;;3.47;1.80;;;19.60;54.00;;;;;;5015109;28;20486;-31
2023/06/02 00:56:34;;;;;;;4.00;1.90;;;19.90;53.70;;;;;;5014878;28;20046;-31
2023/06/02 00:59:02;;;;;;;5.05;2.17;;;;;;;;;;5014807;28;20148;-31
2023/06/02 01:01:29;;;;;;;4.93;2.00;;;18.70;70.60;;;;;;5015313;28;20053;-30
2023/06/02 01:03:55;;;;;;;3.45;1.60;;;19.20;57.80;;;;;;5014751;28;20553;-31
2023/06/02 01:06:24;;;;;;;4.10;1.85;;;20.30;71.40;;;;;;5015033;28;20133;-30
2023/06/02 01:08:51;;;;;;;4.20;1.90;;;19.50;71.40;;;;;;5014842;28;20507;-31
2023/06/02 01:11:18;;;;;;;3.80;1.80;;;20.00;71.70;;;;;;5014725;28;20129;-31
2023/06/02 01:13:48;;;;;;;3.85;1.80;;;20.00;71.40;;;;;;5014360;28;20046;-30
2023/06/02 01:16:14;;;;;;;3.72;1.90;;;18.90;70.70;;;;;;5014614;28;20511;-31
2023/06/02 01:18:45;;;;;;;2.92;1.60;;;20.00;71.40;;;;;;5014958;28;20054;-31
2023/06/02 01:21:12;;;;;;;3.92;1.63;;;19.40;71.90;;;;;;5014829;28;20112;-31
2023/06/02 01:23:46;;;;;;;5.05;2.10;;;20.20;71.60;;;;;;5014119;28;20100;-31
2023/06/02 01:26:13;;;;;;;2.63;1.50;;;;;;;;;;5014311;28;20503;-32
2023/06/02 01:28:40;;;;;;;4.00;2.00;;;19.90;60.80;;;;;;5014783;28;20053;-31
2023/06/02 01:31:09;;;;;;;4.30;1.73;;;20.40;72.40;;;;;;5014777;28;20138;-31
2023/06/02 01:33:39;;;;;;;3.47;1.90;;;19.40;71.20;;;;;;5014227;28;20060;-30
2023/06/02 01:36:06;;;;;;;4.22;1.98;;;19.80;71.50;;;;;;5014007;28;20096;-30
2023/06/02 01:38:33;;;;;;;4.22;1.90;;;19.90;61.70;;;;;;5014356;28;20141;-31
2023/06/02 01:41:01;;;;;;;3.50;1.77;;;19.70;71.60;;;;;;5014323;28;20132;-30
2023/06/02 01:43:28;;;;;;;4.70;1.73;;;19.70;72.30;;;;;;5014148;28;20128;-31
2023/06/02 01:45:55;;;;;;;3.90;2.05;;;20.10;57.40;;;;;;5014385;28;20049;-30
2023/06/02 01:48:21;;;;;;;4.18;1.70;;;19.70;72.20;;;;;;5014013;28;20046;-30
2023/06/02 01:50:48;;;;;;;5.63;2.03;;;19.90;72.30;;;;;;5014227;28;20076;-30
2023/06/02 01:53:15;;;;;;;4.07;2.03;;;;;;;;;;5013814;28;20045;-31
2023/06/02 01:55:42;;;;;;;2.78;1.60;;;19.90;71.80;;;;;;5013934;28;20054;-31
2023/06/02 01:58:10;;;;;;;3.38;1.60;;;19.70;53.90;;;;;;5013935;28;20137;-30
2023/06/02 02:00:37;;;;;;;3.70;1.70;;;20.00;71.60;;;;;;5013798;28;20056;-30
2023/06/02 02:03:04;;;;;;;2.83;1.42;;;19.90;61.90;;;;;;5013775;28;20046;-31
2023/06/02 02:05:31;;;;;;;3.08;1.60;;;;;;;;;;5013769;28;20053;-31
2023/06/02 02:07:58;;;;;;;4.70;2.00;;;20.20;72.50;;;;;;5013884;28;20125;-31
2023/06/02 02:10:25;;;;;;;4.80;1.80;;;19.70;71.90;;;;;;5013914;28;20137;-31
2023/06/02 02:12:53;;;;;;;4.70;2.17;;;18.50;70.70;;;;;;5013465;28;20546;-31
2023/06/02 02:15:21;;;;;;;4.88;1.92;;;19.40;63.20;;;;;;5013591;28;20469;-31
2023/06/02 02:17:49;;;;;;;3.28;1.70;;;18.60;71.40;;;;;;5013403;28;20132;-31
2023/06/02 02:20:17;;;;;;;6.63;2.40;;;19.30;54.50;;;;;;5013601;28;20050;-31
2023/06/02 02:22:44;;;;;;;4.55;1.90;;;;;;;;;;5013405;28;20056;-31
2023/06/02 02:25:11;;;;;;;5.78;1.90;;;19.20;72.30;;;;;;5013685;28;20053;-31
2023/06/02 02:27:38;;;;;;;2.90;1.48;;;20.20;72.70;;;;;;5013320;28;20342;-30
2023/06/02 02:30:06;;;;;;;3.42;1.70;;;19.30;71.40;;;;;;5013516;28;20050;-31
2023/06/02 02:32:36;;;;;;;3.92;1.60;;;19.10;66.40;;;;;;5012809;28;20045;-31
2023/06/02 02:35:03;;;;;;;3.97;1.70;;;19.10;70.10;;;;;;5013341;28;20132;-31
2023/06/02 02:37:29;;;;;;;4.53;1.70;;;19.40;62.00;;;;;;5012361;28;20134;-31
2023/06/02 02:39:56;;;;;;;4.07;1.70;;;;;;;;;;5013305;28;20141;-32
2023/06/02 02:42:23;;;;;;;3.28;1.55;;;19.90;72.20;;;;;;5012729;28;20054;-30
2023/06/02 02:44:50;;;;;;;4.78;1.80;;;19.10;72.30;;;;;;5013167;28;20104;-30
2023/06/02 02:47:17;;;;;;;3.92;1.90;;;;;;;;;;5013058;28;20133;-31
2023/06/02 02:49:46;;;;;;;4.00;1.60;;;20.00;72.00;;;;;;5013198;28;20124;-31
2023/06/02 02:52:13;;;;;;;3.65;1.60;;;;;;;;;;5012757;28;20076;-31
2023/06/02 02:54:40;;;;;;;3.72;1.80;;;19.80;72.30;;;;;;5013023;28;20083;-30
2023/06/02 02:57:07;;;;;;;5.05;1.80;;;19.50;54.00;;;;;;5012790;28;20422;-31
2023/06/02 02:59:35;;;;;;;4.20;1.80;;;19.40;71.80;;;;;;5012947;28;20054;-30
2023/06/02 03:02:02;;;;;;;3.42;1.70;;;20.40;67.70;;;;;;5012552;28;20050;-31
2023/06/02 03:04:31;;;;;;;2.20;1.30;;;;;;;;;;5013021;28;20050;-32
2023/06/02 03:07:01;;;;;;;3.78;1.75;;;19.50;71.90;;;;;;5012806;28;20049;-31
2023/06/02 03:09:28;;;;;;;4.13;1.85;;;19.00;66.10;;;;;;5012907;28;20096;-30
2023/06/02 03:11:57;;;;;;;3.25;1.50;;;19.80;71.90;;;;;;5012332;28;20042;-31
2023/06/02 03:14:26;;;;;;;2.80;1.60;;;20.60;64.10;;;;;;5012443;28;20521;-31
2023/06/02 03:16:52;;;;;;;4.28;1.60;;;19.80;72.40;;;;;;5012385;28;20057;-30
2023/06/02 03:19:21;;;;;;;4.00;1.55;;;19.80;72.00;;;;;;5012833;28;20056;-30
2023/06/02 03:21:48;;;;;;;3.53;1.60;;;;;;;;;;5012579;28;20133;-32
2023/06/02 03:24:17;;;;;;;3.22;1.60;;;19.00;72.50;;;;;;5012134;28;20172;-31
2023/06/02 03:26:44;;;;;;;5.13;1.60;;;;;;;;;;5012013;28;20208;-32
2023/06/02 03:29:11;;;;;;;3.53;1.50;;;19.70;72.00;;;;;;5012376;28;20129;-31
2023/06/02 03:31:38;;;;;;;3.10;1.60;;;18.90;62.70;;;;;;5012410;28;20575;-31
2023/06/02 03:34:05;;;;;;;3.67;1.40;;;19.90;72.90;;;;;;5012187;28;20052;-30
2023/06/02 03:36:34;;;;;;;3.58;1.50;;;19.40;58.40;;;;;;5011671;28;20080;-31
2023/06/02 03:39:02;;;;;;;5.68;1.85;;;19.30;72.30;;;;;;5012126;28;20137;-31
2023/06/02 03:41:30;;;;;;;3.25;1.60;;;19.80;72.40;;;;;;5012189;28;20053;-31
2023/06/02 03:43:57;;;;;;;3.28;1.60;;;19.60;72.80;;;;;;5012228;28;20041;-31
2023/06/02 03:46:23;;;;;;;2.72;1.52;;;19.70;73.10;;;;;;5012116;28;20384;-30
2023/06/02 03:48:50;;;;;;;4.47;1.73;;;;;;;;;;5012236;28;20092;-32
2023/06/02 03:51:17;;;;;;;3.03;1.60;;;19.50;72.00;;;;;;5011897;28;20129;-31
2023/06/02 03:53:44;;;;;;;3.55;1.60;;;19.20;71.90;;;;;;5011383;28;20128;-30
2023/06/02 03:56:11;;;;;;;3.25;1.50;;;19.30;64.80;;;;;;5011989;28;20058;-31
2023/06/02 03:58:40;;;;;;;4.45;1.80;;;19.30;72.40;;;;;;5012352;28;20046;-30
2023/06/02 04:01:08;;;;;;;3.78;1.98;;;;;;;;;;5012010;28;20053;-31
2023/06/02 04:03:36;;;;;;;3.60;1.60;;;;;;;;;;5011990;28;20050;-31
2023/06/02 04:06:03;;;;;;;4.18;1.80;;;19.10;54.20;;;;;;5011638;28;20454;-31
2023/06/02 04:08:30;;;;;;;2.65;1.40;;;19.80;73.20;;;;;;5011731;28;20056;-30
2023/06/02 04:10:57;;;;;;;3.78;1.58;;;;;;;;;;5012184;28;20066;-32
2023/06/02 04:13:24;;;;;;;3.33;1.67;;;19.70;72.70;;;;;;5011655;28;20053;-31
2023/06/02 04:15:52;;;;;;;3.67;1.50;;;19.20;72.90;;;;;;5012018;28;20054;-30
2023/06/02 04:18:19;;;;;;;2.83;1.30;;;18.90;72.70;;;;;;5011952;28;20050;-30
2023/06/02 04:20:45;;;;;;;2.65;1.50;;;19.00;56.90;;;;;;5011956;28;20054;-31
2023/06/02 04:23:12;;;;;;;4.85;1.70;;;19.10;71.90;;;;;;5010978;28;20105;-31
2023/06/02 04:25:39;;;;;;;3.58;1.73;;;18.70;71.70;;;;;;5012049;28;20045;-30
2023/06/02 04:28:07;;;;;;;5.10;1.83;;;;;;;;;;5011875;28;20053;-31
2023/06/02 04:30:36;;;;;;;3.85;1.83;;;19.00;61.20;;;;;;5011747;28;20080;-31
2023/06/02 04:33:05;;;;;;;3.30;1.27;;;19.30;73.00;;;;;;5011662;28;20065;-31
2023/06/02 04:35:31;;;;;;;4.13;1.60;;;19.70;72.70;;;;;;5011563;28;20081;-34
2023/06/02 04:37:58;;;;;;;4.82;2.03;;;;;;;;;;5010919;28;20064;-31
2023/06/02 04:40:25;;;;;;;3.15;1.60;;;18.80;72.00;;;;;;5011538;28;20052;-30
2023/06/02 04:42:52;;;;;;;3.97;1.77;;;;;;;;;;5011499;28;20046;-32
2023/06/02 04:45:23;;;;;;;4.15;1.50;;;19.60;72.30;;;;;;5011685;28;20210;-31
2023/06/02 04:47:50;;;;;;;2.83;1.42;;;;;;;;;;5011784;28;20046;-31
2023/06/02 04:50:19;;;;;;;4.78;1.50;;;19.30;54.30;;;;;;5010900;28;20049;-30
2023/06/02 04:52:45;;;;;;;3.85;1.60;;;19.00;72.50;;;;;;5011670;28;20060;-31
2023/06/02 04:55:13;;;;;;;4.47;1.80;;;;;;;;;;5011618;28;20060;-32
2023/06/02 04:57:40;;;;;;;3.20;1.48;;;19.20;73.20;;;;;;5011696;28;20046;-30
2023/06/02 05:00:08;;;;;;;4.05;1.70;;;19.30;54.40;;;;;;5013594;28;20061;-31
2023/06/02 05:02:35;;;;;;;4.72;1.63;;;;;;;;;;5014623;28;20442;-31
2023/06/02 05:05:04;;;;;;;3.63;1.70;;;20.20;72.70;;;;;;5014685;28;20117;-30
2023/06/02 05:07:33;;;;;;;4.95;1.45;;;19.20;54.40;;;;;;5011952;28;20124;-30
2023/06/02 05:09:59;;;;;;;4.07;1.60;;;19.50;72.80;;;;;;5012104;28;20050;-31
2023/06/02 05:12:26;;;;;;;3.60;1.60;;;19.30;73.30;;;;;;5014803;28;20147;-30
2023/06/02 05:14:54;;;;;;;5.18;1.65;;;19.20;58.70;;;;;;5014593;28;20072;-31
2023/06/02 05:17:27;;;;;;;4.57;1.70;;;20.10;60.50;;;;;;5013431;28;20046;-31
2023/06/02 05:19:54;;;;;;;4.05;1.65;;;19.30;72.80;;;;;;5006818;28;20418;-30
2023/06/02 05:22:21;;;;;;;4.05;1.55;;;;;;;;;;5014602;28;20092;-32
2023/06/02 05:24:49;;;;;;;3.33;1.33;;;18.70;73.00;;;;;;5014094;28;20515;-31
2023/06/02 05:27:16;;;;;;;3.53;1.40;;;19.70;72.40;;;;;;5013977;28;20056;-30
2023/06/02 05:29:43;;;;;;;4.85;1.50;;;;;;;;;;5014019;28;20132;-30
2023/06/02 05:32:11;;;;;;;3.67;1.80;;;19.60;67.20;;;;;;5014277;28;20053;-31
2023/06/02 05:34:37;;;;;;;3.85;1.70;;;19.70;73.40;;;;;;5014495;28;20108;-30
2023/06/02 05:37:04;;;;;;;3.17;1.42;;;18.90;68.80;;;;;;5013871;28;20514;-30
2023/06/02 05:39:31;;;;;;;4.30;1.50;;;18.70;72.30;;;;;;5001718;28;20144;-31
2023/06/02 05:41:59;;;;;;;3.80;1.50;;;19.50;54.40;;;;;;5013880;28;20069;-32
2023/06/02 05:44:26;;;;;;;4.75;1.48;;;;;;;;;;5013590;28;20048;-33
2023/06/02 05:46:53;;;;;;;3.00;1.30;;;19.60;56.60;;;;;;5013868;28;20049;-31
2023/06/02 05:49:19;;;;;;;4.20;1.55;;;18.80;71.50;;;;;;5013834;28;20056;-31
2023/06/02 05:51:46;;;;;;;3.65;1.60;;;19.60;56.70;;;;;;5001862;28;20129;-31
2023/06/02 05:54:13;;;;;;;2.95;1.50;;;20.50;72.10;;;;;;5000077;28;20477;-31
2023/06/02 05:56:40;;;;;;;4.03;1.15;;;20.00;71.90;;;;;;5004250;28;20052;-31
2023/06/02 05:59:08;;;;;;;4.18;1.40;;;20.70;54.40;;;;;;5009500;28;20475;-31
2023/06/02 06:01:35;;;;;;;3.33;1.63;;;20.00;72.00;;;;;;5013075;28;20054;-31
2023/06/02 06:04:02;;;;;;;4.47;1.63;;;20.10;58.50;;;;;;5013287;28;20041;-31
2023/06/02 06:06:29;;;;;;;4.72;1.63;;;20.80;58.40;;;;;;4995554;28;20483;-32
2023/06/02 06:08:55;;;;;;;3.92;1.50;;;20.60;70.90;;;;;;5007188;28;20127;-31
2023/06/02 06:11:23;;;;;;;3.65;1.50;;;20.40;70.70;;;;;;5004287;28;20047;-31
2023/06/02 06:13:50;;;;;;;3.78;1.58;;;20.00;70.60;;;;;;5002759;28;20499;-31
2023/06/02 06:16:18;;;;;;;4.18;1.67;;;20.80;53.10;;;;;;5007050;28;20133;-34
2023/06/02 06:18:45;;;;;;;4.05;1.50;;;20.10;70.30;;;;;;5003302;28;20130;-31
2023/06/02 06:21:13;;;;;;;4.28;1.50;;;20.80;70.30;;;;;;5006457;28;20108;-31
2023/06/02 06:23:40;;;;;;;3.67;1.75;;;20.90;69.50;;;;;;5004431;28;20513;-31
2023/06/02 06:26:07;;;;;;;2.30;1.30;;;;;;;;;;5006494;28;20054;-32
2023/06/02 06:28:34;;;;;;;4.38;1.60;;;;;;;;;;5003643;28;20129;-31
2023/06/02 06:31:02;;;;;;;7.82;2.65;;;;;;;;;;5002306;28;20133;-33
2023/06/02 06:33:30;;;;;;;4.15;1.50;;;21.10;70.30;;;;;;5004191;28;20089;-31
2023/06/02 06:35:56;;;;;;;3.33;1.60;;;20.30;69.90;;;;;;5007041;28;20495;-31
2023/06/02 06:38:23;;;;;;;3.80;1.33;;;20.50;69.30;;;;;;5012977;28;20058;-31
2023/06/02 06:40:50;;;;;;;6.20;1.50;;;;;;;;;;5012574;28;20388;-32
2023/06/02 06:43:17;;;;;;;4.13;1.60;;;21.10;56.20;;;;;;5012458;28;20410;-31
2023/06/02 06:45:44;;;;;;;5.15;1.50;;;;;;;;;;5012941;28;20038;-32
2023/06/02 06:48:11;;;;;;;3.75;1.52;;;20.60;70.20;;;;;;5013090;28;20054;-31
2023/06/02 06:50:39;;;;;;;4.97;1.70;;;22.30;70.30;;;;;;5012928;28;20046;-34
2023/06/02 06:53:06;;;;;;;4.20;1.60;;;;;;;;;;5002506;28;20491;-33
2023/06/02 06:55:34;;;;;;;5.00;1.50;;;20.50;69.30;;;;;;5003181;28;20549;-33
2023/06/02 06:58:01;;;;;;;3.83;1.50;;;;;;;;;;5001718;28;20042;-33
2023/06/02 07:00:29;;;;;;;2.85;1.42;;;;;;;;;;5002979;28;20046;-32
2023/06/02 07:02:55;;;;;;;4.72;1.92;;;21.00;60.80;;;;;;5006160;28;20499;-33
2023/06/02 07:05:23;;;;;;;3.33;1.60;;;;;;;;;;5001637;28;20125;-32
2023/06/02 07:07:51;;;;;;;7.13;1.90;;;21.30;69.50;;;;;;5002317;28;20124;-33
2023/06/02 07:10:17;;;;;;;5.22;1.73;;;20.80;69.60;;;;;;5003733;28;20132;-34
2023/06/02 07:12:44;;;;;;;3.95;1.80;;;21.10;69.40;;;;;;5003301;28;20128;-33
2023/06/02 07:15:11;;;;;;;6.95;1.92;;;20.80;61.20;;;;;;5002802;28;20443;-33
2023/06/02 07:17:39;;;;;;;4.88;1.70;;;21.60;69.50;;;;;;5006589;28;20049;-34
2023/06/02 07:20:07;;;;;;;3.92;1.65;;;21.20;52.20;;;;;;5011964;28;20130;-33
2023/06/02 07:22:34;;;;;;;4.18;1.95;;;20.20;68.90;;;;;;5011266;28;20048;-31
2023/06/02 07:25:03;;;;;;;4.07;1.60;;;21.20;52.20;;;;;;5006483;28;20423;-32
2023/06/02 07:27:30;;;;;;;3.25;1.77;;;21.50;69.90;;;;;;5002018;28;20041;-33
2023/06/02 07:29:57;;;;;;;5.43;2.00;;;20.90;69.60;;;;;;5003452;28;20137;-34
2023/06/02 07:32:23;;;;;;;4.25;1.75;;;20.70;61.60;;;;;;5003667;28;20451;-33
2023/06/02 07:34:50;;;;;;;5.95;1.77;;;;;;;;;;5002356;28;20127;-33
2023/06/02 07:37:18;;;;;;;5.43;1.92;;;;;;;;;;5001838;28;20129;-32
2023/06/02 07:39:44;;;;;;;5.78;1.85;;;21.40;69.90;;;;;;5002730;28;20130;-31
2023/06/02 07:42:13;;;;;;;3.92;1.63;;;21.10;52.30;;;;;;5002220;28;20141;-32
2023/06/02 07:44:40;;;;;;;3.83;1.63;;;;;;;;;;5000829;28;20122;-32
2023/06/02 07:47:07;;;;;;;3.78;1.60;;;21.60;69.60;;;;;;5003555;28;20129;-31
2023/06/02 07:49:34;;;;;;;4.53;1.95;;;;;;;;;;5001337;28;20065;-31
2023/06/02 07:52:01;;;;;;;6.88;2.10;;;20.40;69.00;;;;;;5003019;28;20495;-31
2023/06/02 07:54:28;;;;;;;5.15;1.80;;;;;;;;;;5001416;28;20073;-32
2023/06/02 07:56:55;;;;;;;5.88;1.55;;;21.30;69.90;;;;;;5001145;28;20546;-31
2023/06/02 07:59:23;;;;;;;3.42;1.70;;;21.40;70.40;;;;;;5002708;28;20073;-31
2023/06/02 08:01:51;;;;;;;7.60;1.92;;;;;;;;;;5003953;28;20583;-32
2023/06/02 08:04:18;;;;;;;4.05;1.98;;;21.00;64.30;;;;;;5003837;28;20054;-31
2023/06/02 08:06:44;;;;;;;3.85;1.67;;;22.00;55.10;;;;;;5002557;28;20046;-32
2023/06/02 08:09:11;;;;;;;4.07;1.75;;;21.40;70.30;;;;;;5002602;28;20578;-31
2023/06/02 08:11:39;;;;;;;4.22;1.85;;;;;;;;;;5003024;28;20088;-33
2023/06/02 08:14:05;;;;;;;2.80;1.70;;;21.30;69.20;;;;;;5001107;28;20053;-31
2023/06/02 08:16:33;;;;;;;3.72;1.60;;;22.00;69.90;;;;;;5006227;28;20053;-31
2023/06/02 08:19:00;;;;;;;4.47;1.65;;;21.00;56.00;;;;;;5002743;28;20197;-31
2023/06/02 08:21:27;;;;;;;3.20;1.63;;;;;;;;;;5001391;28;20125;-31
2023/06/02 08:23:54;;;;;;;2.90;1.67;;;21.00;70.20;;;;;;5000965;28;20050;-31
2023/06/02 08:26:22;;;;;;;3.95;1.50;;;;;;;;;;5002548;28;20045;-31
2023/06/02 08:28:49;;;;;;;3.40;1.50;;;21.40;69.60;;;;;;5001356;28;20077;-31
2023/06/02 08:31:18;;;;;;;4.13;1.60;;;21.10;69.30;;;;;;5003009;28;20161;-31
2023/06/02 08:33:47;;;;;;;3.80;1.63;;;21.10;52.30;;;;;;5000996;28;20082;-31
2023/06/02 08:36:17;;;;;;;2.70;1.63;;;20.90;69.10;;;;;;5004431;28;20050;-31
2023/06/02 08:38:44;;;;;;;3.22;1.42;;;;;;;;;;5004586;28;20416;-31
2023/06/02 08:41:12;;;;;;;3.55;1.63;;;22.20;69.70;;;;;;5004625;28;20133;-31
2023/06/02 08:43:39;;;;;;;3.88;1.60;;;;;;;;;;5009719;28;20395;-31
2023/06/02 08:46:06;;;;;;;2.95;1.50;;;;;;;;;;5015369;28;20125;-31
2023/06/02 08:48:32;;;;;;;3.83;1.80;;;20.80;69.60;;;;;;5015570;28;20056;-31
2023/06/02 08:51:01;;;;;;;2.78;1.40;;;21.10;69.50;;;;;;5015510;28;20081;-31
2023/06/02 08:53:28;;;;;;;2.88;1.67;;;;;;;;;;5014858;28;20096;-32
2023/06/02 08:55:55;;;;;;;3.63;1.73;;;21.00;59.30;;;;;;5015127;28;20053;-31
2023/06/02 08:58:21;;;;;;;3.50;1.67;;;21.30;69.80;;;;;;5015300;28;20458;-31
2023/06/02 09:00:49;;;;;;;3.67;1.60;;;20.80;54.10;;;;;;5014369;28;20064;-31
2023/06/02 09:03:16;;;;;;;4.80;1.67;;;20.90;69.20;;;;;;5014742;28;20133;-31
2023/06/02 09:05:43;;;;;;;2.75;1.50;;;21.50;69.40;;;;;;5014963;28;20131;-31
2023/06/02 09:08:12;;;;;;;4.10;1.50;;;21.50;52.80;;;;;;5015141;28;20470;-33
2023/06/02 09:10:40;;;;;;;2.88;1.50;;;21.00;69.20;;;;;;5014934;28;20136;-34
2023/06/02 09:13:08;;;;;;;4.15;1.67;;;22.00;69.90;;;;;;5014762;28;20060;-33
2023/06/02 09:15:36;;;;;;;3.42;1.40;;;21.10;65.30;;;;;;5014387;28;20448;-33
2023/06/02 09:18:12;;;;;;;3.65;1.45;;;21.30;52.10;;;;;;5014529;28;20530;-33
2023/06/02 09:20:39;;;;;;;3.20;1.40;;;21.60;54.90;;;;;;5014324;28;20132;-32
2023/06/02 09:23:06;;;;;;;5.85;1.85;;;21.90;70.20;;;;;;5014257;28;20064;-33
2023/06/02 09:25:35;;;;;;;4.85;1.65;;;21.40;65.40;;;;;;5014301;28;20042;-33
2023/06/02 09:28:02;;;;;;;2.30;1.50;;;21.50;69.10;;;;;;5013861;28;20491;-33
2023/06/02 09:30:29;;;;;;;4.15;1.63;;;;;;;;;;5014415;28;20407;-32
2023/06/02 09:32:56;;;;;;;3.10;1.40;;;21.50;70.00;;;;;;5014302;28;20077;-33
2023/06/02 09:35:33;;;;;;;5.85;1.70;;;21.20;62.50;;;;;;5014478;28;20050;-33
2023/06/02 09:38:00;;;;;;;3.92;1.50;;;21.30;63.90;;;;;;5014005;28;20056;-33
2023/06/02 09:40:28;;;;;;;2.63;1.40;;;;;;;;;;5014513;28;20514;-32
2023/06/02 09:42:56;;;;;;;2.28;1.33;;;21.60;69.60;;;;;;5014399;28;20060;-33
2023/06/02 09:45:22;;;;;;;3.05;1.48;;;21.10;69.40;;;;;;5013927;28;20473;-33
2023/06/02 09:47:50;;;;;;;2.50;1.38;;;;;;;;;;5013883;28;20133;-32
2023/06/02 09:50:33;;;;;;;3.83;1.50;;;22.00;70.00;;;;;;5014208;28;20050;-33
2023/06/02 09:53:04;;;;;;;3.50;1.50;;;21.40;69.90;;;;;;5014170;28;20128;-33
2023/06/02 09:55:33;;;;;;;2.65;1.35;;;22.00;70.10;;;;;;5014188;28;20081;-33
2023/06/02 09:58:01;;;;;;;6.25;1.80;;;21.20;52.10;;;;;;5013929;28;20046;-32
2023/06/02 10:00:28;;;;;;;3.10;1.45;;;;;;;;;;5013610;28;20046;-32
2023/06/02 10:02:55;;;;;;;2.10;1.20;;;;;;;;;;5013548;28;20136;-31
2023/06/02 10:05:22;;;;;;;4.07;1.42;;;22.00;57.00;;;;;;5013821;28;20105;-32
2023/06/02 10:08:06;;;;;;;3.75;1.48;;;20.80;70.00;;;;;;5014001;28;20061;-33
2023/06/02 10:10:42;;;;;;;2.13;1.10;;;21.60;69.80;;;;;;5013484;28;20050;-33
2023/06/02 10:13:35;;;;;;;4.95;1.25;;;20.80;69.30;;;;;;4999255;28;20213;-33
2023/06/02 10:16:11;;;;;;;3.40;1.30;;;20.60;69.90;;;;;;5002490;28;20064;-33
2023/06/02 10:19:12;;;;;;;1.52;1.20;;;21.40;70.60;;;;;;4994410;28;20418;-33
2023/06/02 10:21:47;;;;;;;2.85;1.35;;;20.10;62.00;;;;;;4994150;28;20129;-33
2023/06/02 10:24:18;;;;;;;2.20;1.30;;;21.10;70.40;;;;;;4993755;28;20515;-33
2023/06/02 10:26:56;;;;;;;3.00;1.73;;;21.10;52.30;;;;;;4995738;28;20050;-32
2023/06/02 10:29:25;;;;;;;1.90;1.20;;;21.10;52.30;;;;;;5013486;28;20132;-32
2023/06/02 10:31:52;;;;;;;3.22;1.40;;;20.60;69.30;;;;;;5012604;28;20045;-33
2023/06/02 10:34:37;;;;;;;3.10;1.35;;;21.40;53.10;;;;;;5013003;28;20129;-33
2023/06/02 10:37:16;;;;;;;2.17;1.30;;;20.40;69.00;;;;;;5009226;28;20049;-33
2023/06/02 10:39:52;;;;;;;3.75;1.33;;;21.20;52.20;;;;;;5012949;28;20065;-32
2023/06/02 10:42:19;;;;;;;5.38;1.50;;;21.70;70.40;;;;;;5012671;28;20137;-33
2023/06/02 10:44:48;;;;;;;2.88;1.50;;;21.00;69.80;;;;;;5012666;28;20591;-33
2023/06/02 10:47:34;;;;;;;3.00;1.02;;;21.10;69.40;;;;;;4993397;28;20056;-33
2023/06/02 10:50:02;;;;;;;2.75;1.40;;;21.90;69.60;;;;;;5004731;28;20526;-33
2023/06/02 10:52:29;;;;;;;3.72;1.20;;;21.50;69.90;;;;;;5012393;28;20621;-33
2023/06/02 10:55:33;;;;;;;2.58;1.30;;;21.40;52.20;;;;;;5012929;28;20089;-33
2023/06/02 10:58:01;;;;;;;2.95;1.30;;;21.00;69.00;;;;;;5012112;28;20130;-33
2023/06/02 11:00:49;;;;;;;3.78;1.20;;;21.50;54.90;;;;;;5012588;28;20130;-33
2023/06/02 11:03:33;;;;;;;2.80;1.10;;;21.40;69.20;;;;;;5011670;28;20053;-33
2023/06/02 11:06:19;;;;;;;2.00;1.20;;;22.50;57.30;;;;;;5010669;28;20559;-32
2023/06/02 11:08:47;;;;;;;2.10;1.27;;;23.90;53.50;;;;;;5011159;28;20148;-32
2023/06/02 11:11:29;;;;;;;2.42;1.40;;;21.20;52.00;;;;;;5012229;28;20164;-33
2023/06/02 11:13:57;;;;;;;1.65;1.00;;;21.20;56.80;;;;;;5011847;28;20506;-33
2023/06/02 11:16:27;;;;;;;2.95;1.20;;;22.20;70.10;;;;;;5012251;28;20513;-33
2023/06/02 11:18:53;;;;;;;3.28;1.48;;;21.50;69.20;;;;;;5012617;28;20046;-33
2023/06/02 11:21:21;;;;;;;1.95;1.10;;;21.50;52.10;;;;;;5012588;28;20077;-32
2023/06/02 11:23:48;;;;;;;1.42;1.10;;;;;;;;;;5012303;28;20137;-33
2023/06/02 11:26:16;;;;;;;1.98;1.10;;;20.80;69.20;;;;;;5011521;28;20557;-33
2023/06/02 11:28:43;;;;;;;2.17;1.05;;;;;;;;;;5012147;28;20057;-33
2023/06/02 11:31:11;;;;;;;2.83;1.20;;;21.50;67.00;;;;;;5012552;28;20583;-32
2023/06/02 11:33:39;;;;;;;2.35;1.10;;;21.50;69.20;;;;;;5011956;28;20498;-33
2023/06/02 11:36:08;;;;;;;1.67;1.10;;;22.10;70.20;;;;;;5011652;28;20151;-33
2023/06/02 11:38:34;;;;;;;3.20;1.20;;;21.90;70.20;;;;;;5011295;28;20056;-33
2023/06/02 11:41:08;;;;;;;2.13;1.08;;;21.80;66.60;;;;;;5012282;28;20132;-33
2023/06/02 11:43:36;;;;;;;2.70;1.20;;;;;;;;;;5009756;28;20054;-33
2023/06/02 11:46:06;;;;;;;1.52;1.00;;;21.00;69.00;;;;;;4992529;28;20396;-33
2023/06/02 11:48:36;;;;;;;2.25;1.20;;;21.60;61.90;;;;;;4992197;28;20073;-33
2023/06/02 11:51:04;;;;;;;2.35;1.10;;;20.50;54.60;;;;;;4992501;28;20137;-33
2023/06/02 11:53:31;;;;;;;1.75;1.17;;;21.70;69.40;;;;;;4999414;28;20049;-33
2023/06/02 11:55:57;;;;;;;1.73;1.10;;;22.10;58.40;;;;;;5009151;28;20474;-32
2023/06/02 11:58:27;;;;;;;2.28;1.20;;;21.70;60.00;;;;;;5011843;28;20088;-32
2023/06/02 12:00:54;;;;;;;2.47;1.15;;;21.50;52.30;;;;;;5011817;28;20081;-32
2023/06/02 12:03:24;;;;;;;2.03;1.10;;;21.40;69.60;;;;;;5011764;28;20050;-33
2023/06/02 12:05:51;;;;;;;2.85;1.27;;;;;;;;;;5011514;28;20599;-33
2023/06/02 12:08:24;;;;;;;2.65;1.25;;;20.80;60.10;;;;;;5005998;28;20061;-33
2023/06/02 12:10:52;;;;;;;3.95;1.48;;;21.20;69.20;;;;;;4995666;28;20507;-33
2023/06/02 12:13:25;;;;;;;3.30;1.45;;;22.00;70.10;;;;;;4996171;28;20105;-33
2023/06/02 12:15:53;;;;;;;4.13;1.63;;;21.50;52.40;;;;;;4998101;28;20503;-32
2023/06/02 12:18:27;;;;;;;3.72;1.75;;;21.30;63.20;;;;;;5007175;28;20056;-33
2023/06/02 12:20:55;;;;;;;5.05;1.80;;;21.70;60.70;;;;;;5001660;28;20134;-33
2023/06/02 12:23:23;;;;;;;4.00;1.60;;;22.10;70.70;;;;;;5003581;28;20104;-33
2023/06/02 12:25:56;;;;;;;4.30;1.98;;;20.90;69.60;;;;;;5015708;28;20124;-33
2023/06/02 12:28:24;;;;;;;3.47;1.80;;;22.00;70.50;;;;;;5015737;28;20503;-33
2023/06/02 12:30:51;;;;;;;5.50;1.80;;;21.80;55.00;;;;;;5015625;28;20084;-33
2023/06/02 12:33:18;;;;;;;3.47;1.80;;;21.90;69.70;;;;;;5015720;28;20049;-33
2023/06/02 12:35:45;;;;;;;4.80;1.75;;;;;;;;;;5015207;28;20078;-31
2023/06/02 12:38:11;;;;;;;4.95;1.80;;;20.50;60.00;;;;;;5014568;28;20060;-32
2023/06/02 12:40:40;;;;;;;6.07;1.92;;;21.40;69.30;;;;;;5015279;28;20128;-31
2023/06/02 12:43:07;;;;;;;3.65;1.70;;;;;;;;;;5015277;28;20061;-31
2023/06/02 12:45:34;;;;;;;4.15;1.88;;;21.20;69.50;;;;;;5014906;28;20415;-31
2023/06/02 12:48:01;;;;;;;4.10;1.60;;;;;;;;;;5015400;28;20141;-30
2023/06/02 12:50:28;;;;;;;5.25;1.67;;;21.70;70.10;;;;;;5015227;28;20427;-31
2023/06/02 12:52:57;;;;;;;3.90;1.90;;;20.90;57.70;;;;;;5009016;28;20057;-31
2023/06/02 12:55:23;;;;;;;5.05;1.80;;;21.70;68.20;;;;;;4995489;28;20054;-31
2023/06/02 12:57:51;;;;;;;4.25;1.70;;;21.40;52.90;;;;;;4995378;28;20137;-31
2023/06/02 13:00:18;;;;;;;5.85;1.60;;;21.50;70.20;;;;;;4998512;28;20046;-31
2023/06/02 13:02:46;;;;;;;4.55;1.80;;;;;;;;;;5004798;28;20128;-31
2023/06/02 13:05:13;;;;;;;4.40;1.67;;;;;;;;;;5003984;28;20507;-31
2023/06/02 13:07:40;;;;;;;4.53;1.90;;;20.90;69.40;;;;;;4999028;28;20046;-31
2023/06/02 13:10:08;;;;;;;3.85;1.70;;;21.60;70.20;;;;;;5011300;28;20471;-32
2023/06/02 13:12:35;;;;;;;4.30;1.83;;;;;;;;;;5014858;28;20100;-32